| Date | Time | Temp. (oF) | Dew Point (oF) | Rel. Hum. (%) | Press. (in.) | Wind Dir. | Wind Speed (mph) | Hourly Rainfall (in.) |
|
|---|---|---|---|---|---|---|---|---|---|
| 1 | 02/11 | 00:00 | 29 | 20 | 70 | 29.77 | NW | 6 | 0.00 |
| 2 | 02/10 | 23:00 | 29 | 20 | 70 | 29.76 | WNW | 15 | 0.00 |
| 3 | 02/10 | 22:00 | 29 | 20 | 69 | 29.76 | WNW | 13 | 0.00 |
| 4 | 02/10 | 21:00 | 29 | 20 | 70 | 29.74 | WNW | 12 | 0.00 |
| 5 | 02/10 | 20:00 | 30 | 20 | 68 | 29.73 | WNW | 6 | 0.00 |
| 6 | 02/10 | 19:00 | 31 | 21 | 68 | 29.71 | WNW | 17 | 0.00 |
| 7 | miss | miss | miss | miss | miss | miss | miss | miss | |
| 8 | 02/10 | 18:40 | 31 | 21 | 68 | 29.71 | NW | 7 | 0.00 |
| 9 | miss | miss | miss | miss | miss | miss | miss | miss | |
| 10 | 02/10 | 18:38 | 31 | 21 | 68 | 29.71 | W | 18 | 0.00 |
| 11 | miss | miss | miss | miss | miss | miss | miss | miss | |
| 12 | 02/10 | 18:36 | 31 | 21 | 68 | 29.71 | NW | 7 | 0.00 |
| 13 | miss | miss | miss | miss | miss | miss | miss | miss | |
| 14 | 02/10 | 18:34 | 31 | 21 | 68 | 29.70 | WNW | 9 | 0.00 |
| 15 | miss | miss | miss | miss | miss | miss | miss | miss | |
| 16 | 02/10 | 18:32 | 31 | 21 | 68 | 29.70 | WNW | 6 | 0.00 |
| 17 | miss | miss | miss | miss | miss | miss | miss | miss | |
| 18 | 02/10 | 18:30 | 31 | 21 | 67 | 29.70 | WNW | 15 | 0.00 |
| 19 | miss | miss | miss | miss | miss | miss | miss | miss | |
| 20 | 02/10 | 18:28 | 31 | 21 | 67 | 29.70 | WNW | 9 | 0.00 |
| 21 | miss | miss | miss | miss | miss | miss | miss | miss | |
| 22 | 02/10 | 18:26 | 31 | 21 | 68 | 29.70 | WNW | 7 | 0.00 |
| 23 | miss | miss | miss | miss | miss | miss | miss | miss | |
| 24 | 02/10 | 18:24 | 31 | 21 | 67 | 29.70 | W | 16 | 0.00 |
| 25 | miss | miss | miss | miss | miss | miss | miss | miss | |
| 26 | 02/10 | 18:23 | 31 | 21 | 67 | 29.70 | WNW | 17 | 0.00 |
| 27 | miss | miss | miss | miss | miss | miss | miss | miss | |
| 28 | 02/10 | 18:23 | 31 | 21 | 67 | 29.70 | WNW | 17 | 0.00 |
| 29 | miss | miss | miss | miss | miss | miss | miss | miss | |
| 30 | 02/10 | 18:23 | 31 | 21 | 67 | 29.70 | WNW | 17 | 0.00 |
| 31 | 02/10 | 18:00 | 31 | 21 | 67 | 29.70 | WNW | 17 | 0.00 |
| 32 | 02/10 | 17:00 | 34 | 22 | 62 | 29.69 | NW | 12 | 0.00 |
| 33 | 02/10 | 16:00 | 35 | 23 | 63 | 29.67 | NNW | 9 | 0.00 |
| 34 | 02/10 | 15:00 | 36 | 24 | 63 | 29.64 | NW | 11 | 0.00 |
| 35 | 02/10 | 14:00 | 36 | 24 | 62 | 29.64 | NW | 11 | 0.00 |
| 36 | 02/10 | 13:00 | 35 | 25 | 69 | 29.66 | WNW | 19 | 0.00 |
| 37 | 02/10 | 12:00 | 36 | 28 | 73 | 29.68 | W | 22 | 0.00 |
| 38 | 02/10 | 11:00 | 36 | 28 | 74 | 29.68 | WNW | 13 | 0.00 |
| 39 | 02/10 | 10:00 | 36 | 29 | 77 | 29.69 | WNW | 10 | 0.00 |
| 40 | 02/10 | 09:00 | 37 | 32 | 82 | 29.68 | NW | 8 | 0.00 |
| 41 | 02/10 | 08:00 | 38 | 34 | 88 | 29.67 | NW | 12 | 0.00 |
| 42 | 02/10 | 07:00 | 38 | 34 | 87 | 29.65 | W | 15 | 0.00 |
| 43 | 02/10 | 06:00 | 41 | 39 | 96 | 29.63 | NW | 6 | 0.00 |
| 44 | 02/10 | 05:00 | 42 | 41 | 100 | 29.62 | NW | 3 | 0.00 |
| 45 | 02/10 | 04:00 | 43 | 42 | 100 | 29.63 | W | 4 | 0.00 |
| 46 | 02/10 | 03:00 | 43 | 42 | 100 | 29.63 | WNW | 3 | 0.01 |
| 47 | 02/10 | 02:00 | 43 | 42 | 99 | 29.64 | WNW | 2 | 0.05 |
| 48 | 02/10 | 01:00 | 43 | 41 | 94 | 29.67 | SSW | 2 | 0.00 |
| 49 | 02/10 | 00:00 | 43 | 39 | 89 | 29.68 | WNW | 5 | -0.06 |
| 50 | 02/09 | 23:00 | 45 | 41 | 86 | 29.70 | NNE | 0 | 0.00 |
| 51 | 02/09 | 22:00 | 45 | 40 | 85 | 29.72 | ENE | 3 | 0.00 |
| 52 | 02/09 | 21:00 | 45 | 40 | 83 | 29.75 | WNW | 7 | 0.00 |
| 53 | 02/09 | 20:00 | 47 | 40 | 79 | 29.72 | ESE | 3 | 0.00 |
| 54 | 02/09 | 19:00 | 49 | 42 | 79 | 29.73 | ESE | 5 | 0.00 |
| 55 | 02/09 | 18:00 | 52 | 43 | 72 | 29.74 | SSE | 4 | 0.00 |
| 56 | 02/09 | 17:00 | 54 | 42 | 66 | 29.77 | SE | 4 | 0.00 |
| 57 | 02/09 | 16:00 | 55 | 43 | 64 | 29.78 | S | 7 | 0.00 |
| 58 | 02/09 | 15:00 | 56 | 44 | 66 | 29.81 | SSE | 2 | 0.00 |
| 59 | 02/09 | 14:00 | 54 | 46 | 76 | 29.85 | ESE | 1 | 0.00 |
| 60 | 02/09 | 13:00 | 51 | 48 | 91 | 29.89 | E | 4 | 0.00 |
| 61 | 02/09 | 12:00 | 49 | 49 | 100 | 29.93 | E | 2 | 0.00 |
| 62 | 02/09 | 11:00 | 43 | 42 | 100 | 29.96 | ENE | 4 | 0.00 |
| 63 | 02/09 | 10:00 | 40 | 39 | 98 | 30.00 | NE | 0 | 0.04 |
| 64 | 02/09 | 09:00 | 39 | 38 | 97 | 30.00 | S | 0 | 0.00 |
| 65 | 02/09 | 08:00 | 39 | 37 | 96 | 29.99 | NNW | 0 | 0.00 |
| 66 | 02/09 | 07:00 | 38 | 36 | 96 | 29.99 | SSE | 0 | 0.00 |
| 67 | 02/09 | 06:00 | 38 | 36 | 95 | 29.99 | SSE | 0 | 0.00 |
| 68 | 02/09 | 05:00 | 38 | 36 | 94 | 29.99 | NNW | 0 | 0.00 |
| 69 | 02/09 | 04:00 | 38 | 36 | 93 | 30.00 | SSW | 0 | 0.00 |
| 70 | 02/09 | 03:00 | 39 | 36 | 91 | 30.02 | WSW | 0 | 0.00 |
| 71 | 02/09 | 02:00 | 40 | 37 | 90 | 30.02 | NNW | 0 | 0.00 |
| 72 | 02/09 | 01:00 | 40 | 36 | 88 | 30.02 | NW | 1 | 0.00 |
| 73 | 02/09 | 00:00 | 40 | 36 | 86 | 30.03 | W | 0 | -0.04 |